Share

Clinton, NC

10:29 AM EDT on April 24, 2014 (GMT -0400)
Sampson County (KCTZ) Elev 148 ft | 34.98 °N, 78.36 °W | Change Station

Current weather conditions updated 14 minutes ago

Clear
Clear
59 °F
Feels Like 59 °F
N
7
Wind Variable Wind from NE
Sunrise 6:30 AM
Sunset 7:53 PM
Moon Waning Crescent

Today is forecast to be nearly the same temperature as yesterday.

Pressure 30.16 in
Visibility 10.0 miles
Clouds Clear
Dew Point 36 °F
Humidity 44%
Rainfall 0.00 in
Snow Depth Not available.
UV 6 out of 16
Pollen 8.70 out of 12
Ozone Good
PM2.5 Good
Flu Activity Local Activity
METAR KCTZ 241415Z AUTO 05006KT 10SM CLR 15/03 A3016 RMK AO2 T01480025

More Conditions Fewer Conditions

Pressure 30.16 in
Visibility 10.0 miles
Clouds Clear
Dew Point 36 °F
Humidity 44%
Rainfall 0.00 in
Snow Depth Not available.
UV 6 out of 16
Pollen 8.70 out of 12
Ozone Good
PM2.5 Good
Flu Activity Local Activity
METAR KCTZ 241415Z AUTO 05006KT 10SM CLR 15/03 A3016 RMK AO2 T01480025

More Conditions Fewer Conditions

10-Day Weather Forecast

Almanac

Astronomy

Apr. 24, 2014 Rise Set
Actual Time 6:30 AM EDT 7:53 PM EDT
Civil Twilight 6:03 AM EDT 8:19 PM EDT
Nautical Twilight 5:32 AM EDT 8:51 PM EDT
Astronomical Twilight 4:58 AM EDT 9:24 PM EDT
Moon 3:28 AM EDT 3:17 PM EDT
Length of Visible Light 14h 16m
Length of Day
13h 22m
Tomorrow will be 1m 58s longer.
Waning Crescent, 25% of the Moon is Illuminated
Today
Waning Crescent
Apr 29
New
May 6
First Quarter
May 14
Full
May 21
Last Quarter

Today's Extremes

State Highs State Lows

Community

  • Clouds mov'n in
    Clouds mov'n in
  • Stacked
    Stacked
  • clouds approaching Red Sox Nation
    clouds approaching Red Sox Nation
  • Balance
    Balance
  • Citysky
    Citysky

WunderPhotos

Upload Photos

1,704,622 photos uploaded!

WunderBlogs® & News

Nearby

Air Quality

  Air Quality AQ Index Pollutant
Yesterday Moderate
OZONE
Yesterday Good
PM2.5
Current Good
PM2.5
Current Good
OZONE
Thursday Good
OZONE
Thursday Good
PM2.5
Friday Moderate
PM2.5
Friday Good
OZONE
Saturday Good
PM2.5
Saturday Good
OZONE

Snow Depth

Station Depth Elevation
No new snow has been reported.

Coastal Water Temperatures

Place Temperature
No Stations Reporting

Earthquake Activity

City Distance Mag. Time & Date
No recent earthquake activity has been reported nearby.
Minimum magnitude displayed is 2.5.

Nearby Weather Stations

Station Location Temp. Dew Point Humidity Wind Precip. Elev Updated Type
MesoWest W59A Clinton , Newton Grove, NC 56 °F 31 °F 39% SE  at  9 mph 0.00 in / hr 195 ft 10:00 AM EDT MADIS
Big Creek, Stedman, NC 60.5 °F 40 °F 46% SE  at  1.0 mph 0.00 in / hr 98 ft 10:29 AM EDT Rapid Fire
RAWS NC FIRE RAWS #3 NC, Kenansville, NC 55 °F 37 °F 51% ESE  at  1 mph 0.00 in / hr 138 ft 9:49 AM EDT MADIS

Show More Stations Show Fewer Stations

What do you think?

We're not finished. Please let us know what you like, what you don't like, and what you are still missing.